sensor_id;sensor_type;location;lat;lon;timestamp;P1;durP1;ratioP1;P2;durP2;ratioP2
38901;SDS011;24661;53.566;9.910;2023-05-16T00:00:03;3.33;;;2.07;;
38901;SDS011;24661;53.566;9.910;2023-05-16T00:02:31;4.13;;;1.67;;
38901;SDS011;24661;53.566;9.910;2023-05-16T00:04:56;3.57;;;1.83;;
38901;SDS011;24661;53.566;9.910;2023-05-16T00:07:22;3.37;;;1.53;;
38901;SDS011;24661;53.566;9.910;2023-05-16T00:09:48;7.23;;;1.80;;
38901;SDS011;24661;53.566;9.910;2023-05-16T00:12:13;4.60;;;2.27;;
38901;SDS011;24661;53.566;9.910;2023-05-16T00:14:41;3.03;;;1.57;;
38901;SDS011;24661;53.566;9.910;2023-05-16T00:17:07;2.13;;;1.70;;
38901;SDS011;24661;53.566;9.910;2023-05-16T00:19:36;5.70;;;1.60;;
38901;SDS011;24661;53.566;9.910;2023-05-16T00:22:03;5.70;;;1.67;;
38901;SDS011;24661;53.566;9.910;2023-05-16T00:24:29;4.47;;;2.33;;
38901;SDS011;24661;53.566;9.910;2023-05-16T00:26:55;4.80;;;2.40;;
38901;SDS011;24661;53.566;9.910;2023-05-16T00:29:20;4.70;;;2.40;;
38901;SDS011;24661;53.566;9.910;2023-05-16T00:31:48;3.93;;;2.27;;
38901;SDS011;24661;53.566;9.910;2023-05-16T00:34:14;5.80;;;3.03;;
38901;SDS011;24661;53.566;9.910;2023-05-16T00:36:40;4.03;;;2.87;;
38901;SDS011;24661;53.566;9.910;2023-05-16T00:39:05;4.40;;;3.07;;
38901;SDS011;24661;53.566;9.910;2023-05-16T00:41:32;6.07;;;3.00;;
38901;SDS011;24661;53.566;9.910;2023-05-16T00:43:58;4.10;;;2.80;;
38901;SDS011;24661;53.566;9.910;2023-05-16T00:46:24;4.00;;;2.37;;
38901;SDS011;24661;53.566;9.910;2023-05-16T00:48:50;5.33;;;2.93;;
38901;SDS011;24661;53.566;9.910;2023-05-16T00:51:15;8.77;;;3.43;;
38901;SDS011;24661;53.566;9.910;2023-05-16T00:53:41;5.57;;;3.30;;
38901;SDS011;24661;53.566;9.910;2023-05-16T00:56:07;8.23;;;3.03;;
38901;SDS011;24661;53.566;9.910;2023-05-16T00:58:33;5.40;;;2.70;;
38901;SDS011;24661;53.566;9.910;2023-05-16T01:01:00;2.83;;;2.03;;
38901;SDS011;24661;53.566;9.910;2023-05-16T01:03:28;6.47;;;2.63;;
38901;SDS011;24661;53.566;9.910;2023-05-16T01:05:54;3.17;;;2.47;;
38901;SDS011;24661;53.566;9.910;2023-05-16T01:08:19;4.80;;;2.60;;
38901;SDS011;24661;53.566;9.910;2023-05-16T01:25:01;8.07;;;1.90;;
38901;SDS011;24661;53.566;9.910;2023-05-16T01:27:22;4.63;;;2.17;;
38901;SDS011;24661;53.566;9.910;2023-05-16T01:29:50;3.30;;;1.83;;
38901;SDS011;24661;53.566;9.910;2023-05-16T01:32:20;7.37;;;2.87;;
38901;SDS011;24661;53.566;9.910;2023-05-16T01:34:46;7.20;;;2.30;;
38901;SDS011;24661;53.566;9.910;2023-05-16T01:37:17;5.17;;;2.37;;
38901;SDS011;24661;53.566;9.910;2023-05-16T01:39:58;8.73;;;3.50;;
38901;SDS011;24661;53.566;9.910;2023-05-16T01:42:36;6.40;;;2.80;;
38901;SDS011;24661;53.566;9.910;2023-05-16T01:45:17;23.73;;;5.20;;
38901;SDS011;24661;53.566;9.910;2023-05-16T01:47:59;12.70;;;3.73;;
38901;SDS011;24661;53.566;9.910;2023-05-16T01:50:30;16.03;;;4.00;;
38901;SDS011;24661;53.566;9.910;2023-05-16T01:53:05;9.33;;;2.70;;
38901;SDS011;24661;53.566;9.910;2023-05-16T01:55:41;11.27;;;3.00;;
38901;SDS011;24661;53.566;9.910;2023-05-16T01:58:12;6.87;;;2.70;;
38901;SDS011;24661;53.566;9.910;2023-05-16T02:00:40;7.30;;;2.73;;
38901;SDS011;24661;53.566;9.910;2023-05-16T02:03:05;7.67;;;1.83;;
38901;SDS011;24661;53.566;9.910;2023-05-16T02:05:32;7.83;;;2.83;;
38901;SDS011;24661;53.566;9.910;2023-05-16T02:07:58;6.37;;;1.80;;
38901;SDS011;24661;53.566;9.910;2023-05-16T02:10:24;12.00;;;2.40;;
38901;SDS011;24661;53.566;9.910;2023-05-16T02:12:50;6.93;;;3.00;;
38901;SDS011;24661;53.566;9.910;2023-05-16T02:15:16;10.13;;;2.10;;
38901;SDS011;24661;53.566;9.910;2023-05-16T02:17:41;11.40;;;1.80;;
38901;SDS011;24661;53.566;9.910;2023-05-16T02:20:07;6.07;;;1.70;;
38901;SDS011;24661;53.566;9.910;2023-05-16T02:22:34;11.33;;;2.10;;
38901;SDS011;24661;53.566;9.910;2023-05-16T02:25:01;13.03;;;2.27;;
38901;SDS011;24661;53.566;9.910;2023-05-16T02:27:27;7.87;;;2.40;;
38901;SDS011;24661;53.566;9.910;2023-05-16T02:29:53;8.23;;;2.20;;
38901;SDS011;24661;53.566;9.910;2023-05-16T02:32:19;6.17;;;1.60;;
38901;SDS011;24661;53.566;9.910;2023-05-16T02:34:44;11.07;;;1.60;;
38901;SDS011;24661;53.566;9.910;2023-05-16T02:37:10;9.50;;;2.23;;
38901;SDS011;24661;53.566;9.910;2023-05-16T02:39:35;11.70;;;2.13;;
38901;SDS011;24661;53.566;9.910;2023-05-16T02:42:02;12.53;;;3.33;;
38901;SDS011;24661;53.566;9.910;2023-05-16T02:44:28;8.90;;;3.00;;
38901;SDS011;24661;53.566;9.910;2023-05-16T02:46:54;10.83;;;2.43;;
38901;SDS011;24661;53.566;9.910;2023-05-16T02:49:19;13.80;;;2.60;;
38901;SDS011;24661;53.566;9.910;2023-05-16T02:51:45;4.53;;;1.87;;
38901;SDS011;24661;53.566;9.910;2023-05-16T02:54:11;11.57;;;2.30;;
38901;SDS011;24661;53.566;9.910;2023-05-16T02:56:37;11.90;;;2.17;;
38901;SDS011;24661;53.566;9.910;2023-05-16T02:59:03;8.90;;;1.90;;
38901;SDS011;24661;53.566;9.910;2023-05-16T03:01:29;11.47;;;2.20;;
38901;SDS011;24661;53.566;9.910;2023-05-16T03:03:55;10.67;;;2.43;;
38901;SDS011;24661;53.566;9.910;2023-05-16T03:06:21;12.73;;;2.83;;
38901;SDS011;24661;53.566;9.910;2023-05-16T03:08:46;11.07;;;2.27;;
38901;SDS011;24661;53.566;9.910;2023-05-16T03:11:13;6.93;;;1.80;;
38901;SDS011;24661;53.566;9.910;2023-05-16T03:13:40;7.23;;;2.60;;
38901;SDS011;24661;53.566;9.910;2023-05-16T03:16:06;12.13;;;2.40;;
38901;SDS011;24661;53.566;9.910;2023-05-16T03:18:32;9.73;;;2.37;;
38901;SDS011;24661;53.566;9.910;2023-05-16T03:20:57;8.17;;;1.63;;
38901;SDS011;24661;53.566;9.910;2023-05-16T03:23:23;7.93;;;2.33;;
38901;SDS011;24661;53.566;9.910;2023-05-16T03:25:49;13.93;;;2.43;;
38901;SDS011;24661;53.566;9.910;2023-05-16T03:28:15;9.30;;;2.23;;
38901;SDS011;24661;53.566;9.910;2023-05-16T03:30:44;13.80;;;2.00;;
38901;SDS011;24661;53.566;9.910;2023-05-16T03:33:10;7.27;;;3.13;;
38901;SDS011;24661;53.566;9.910;2023-05-16T03:35:35;12.50;;;3.47;;
38901;SDS011;24661;53.566;9.910;2023-05-16T03:38:02;11.20;;;2.43;;
38901;SDS011;24661;53.566;9.910;2023-05-16T03:40:27;7.13;;;2.57;;
38901;SDS011;24661;53.566;9.910;2023-05-16T03:42:53;13.47;;;2.60;;
38901;SDS011;24661;53.566;9.910;2023-05-16T03:45:19;8.70;;;2.27;;
38901;SDS011;24661;53.566;9.910;2023-05-16T03:47:44;8.60;;;1.70;;
38901;SDS011;24661;53.566;9.910;2023-05-16T03:50:10;17.33;;;2.93;;
38901;SDS011;24661;53.566;9.910;2023-05-16T03:52:36;11.80;;;2.20;;
38901;SDS011;24661;53.566;9.910;2023-05-16T03:55:01;14.87;;;3.00;;
38901;SDS011;24661;53.566;9.910;2023-05-16T03:57:31;11.97;;;2.87;;
38901;SDS011;24661;53.566;9.910;2023-05-16T03:59:57;17.47;;;3.77;;
38901;SDS011;24661;53.566;9.910;2023-05-16T04:02:22;18.50;;;2.53;;
38901;SDS011;24661;53.566;9.910;2023-05-16T04:04:48;10.57;;;2.17;;
38901;SDS011;24661;53.566;9.910;2023-05-16T04:07:14;14.23;;;2.37;;
38901;SDS011;24661;53.566;9.910;2023-05-16T04:09:39;17.60;;;3.20;;
38901;SDS011;24661;53.566;9.910;2023-05-16T04:12:05;12.87;;;2.53;;
38901;SDS011;24661;53.566;9.910;2023-05-16T04:14:31;20.50;;;4.33;;
38901;SDS011;24661;53.566;9.910;2023-05-16T04:16:58;12.50;;;2.17;;
38901;SDS011;24661;53.566;9.910;2023-05-16T04:19:24;14.33;;;2.47;;
38901;SDS011;24661;53.566;9.910;2023-05-16T04:21:49;11.23;;;2.60;;
38901;SDS011;24661;53.566;9.910;2023-05-16T04:24:16;14.67;;;1.93;;
38901;SDS011;24661;53.566;9.910;2023-05-16T04:26:41;11.13;;;2.83;;
38901;SDS011;24661;53.566;9.910;2023-05-16T04:29:07;21.73;;;3.63;;
38901;SDS011;24661;53.566;9.910;2023-05-16T04:31:33;10.23;;;1.90;;
38901;SDS011;24661;53.566;9.910;2023-05-16T04:33:58;10.90;;;2.50;;
38901;SDS011;24661;53.566;9.910;2023-05-16T04:36:24;18.53;;;2.33;;
38901;SDS011;24661;53.566;9.910;2023-05-16T04:38:53;14.27;;;3.23;;
38901;SDS011;24661;53.566;9.910;2023-05-16T04:41:18;13.90;;;2.63;;
38901;SDS011;24661;53.566;9.910;2023-05-16T04:43:44;12.77;;;2.87;;
38901;SDS011;24661;53.566;9.910;2023-05-16T04:46:09;12.73;;;2.63;;
38901;SDS011;24661;53.566;9.910;2023-05-16T04:48:35;12.23;;;2.50;;
38901;SDS011;24661;53.566;9.910;2023-05-16T04:51:00;9.93;;;2.07;;
38901;SDS011;24661;53.566;9.910;2023-05-16T04:53:26;7.33;;;1.87;;
38901;SDS011;24661;53.566;9.910;2023-05-16T04:55:52;9.03;;;2.00;;
38901;SDS011;24661;53.566;9.910;2023-05-16T04:58:17;11.87;;;2.20;;
38901;SDS011;24661;53.566;9.910;2023-05-16T05:00:43;14.70;;;2.90;;
38901;SDS011;24661;53.566;9.910;2023-05-16T05:03:08;6.53;;;1.53;;
38901;SDS011;24661;53.566;9.910;2023-05-16T05:05:34;15.07;;;3.57;;
38901;SDS011;24661;53.566;9.910;2023-05-16T05:08:00;9.80;;;1.80;;
38901;SDS011;24661;53.566;9.910;2023-05-16T05:10:25;10.43;;;2.07;;
38901;SDS011;24661;53.566;9.910;2023-05-16T05:12:55;10.57;;;1.80;;
38901;SDS011;24661;53.566;9.910;2023-05-16T05:15:21;13.33;;;2.47;;
38901;SDS011;24661;53.566;9.910;2023-05-16T05:17:46;7.17;;;1.80;;
38901;SDS011;24661;53.566;9.910;2023-05-16T05:20:12;7.07;;;2.30;;
38901;SDS011;24661;53.566;9.910;2023-05-16T05:22:37;15.80;;;2.50;;
38901;SDS011;24661;53.566;9.910;2023-05-16T05:25:04;12.90;;;2.77;;
38901;SDS011;24661;53.566;9.910;2023-05-16T05:27:30;21.57;;;3.10;;
38901;SDS011;24661;53.566;9.910;2023-05-16T05:29:55;11.43;;;2.13;;
38901;SDS011;24661;53.566;9.910;2023-05-16T05:32:21;12.73;;;2.83;;
38901;SDS011;24661;53.566;9.910;2023-05-16T05:34:47;10.57;;;2.20;;
38901;SDS011;24661;53.566;9.910;2023-05-16T05:37:12;12.03;;;2.17;;
38901;SDS011;24661;53.566;9.910;2023-05-16T05:39:42;13.53;;;2.23;;
38901;SDS011;24661;53.566;9.910;2023-05-16T05:42:09;9.57;;;2.00;;
38901;SDS011;24661;53.566;9.910;2023-05-16T05:44:36;13.07;;;2.13;;
38901;SDS011;24661;53.566;9.910;2023-05-16T05:47:02;8.70;;;1.83;;
38901;SDS011;24661;53.566;9.910;2023-05-16T05:49:28;12.67;;;3.10;;
38901;SDS011;24661;53.566;9.910;2023-05-16T05:51:55;12.40;;;1.90;;
38901;SDS011;24661;53.566;9.910;2023-05-16T05:54:20;11.37;;;2.33;;
38901;SDS011;24661;53.566;9.910;2023-05-16T05:56:47;9.43;;;2.70;;
38901;SDS011;24661;53.566;9.910;2023-05-16T05:59:13;10.87;;;1.90;;
38901;SDS011;24661;53.566;9.910;2023-05-16T06:01:38;12.37;;;2.53;;
38901;SDS011;24661;53.566;9.910;2023-05-16T06:04:04;11.50;;;2.30;;
38901;SDS011;24661;53.566;9.910;2023-05-16T06:06:30;5.37;;;1.87;;
38901;SDS011;24661;53.566;9.910;2023-05-16T06:08:56;9.30;;;2.00;;
38901;SDS011;24661;53.566;9.910;2023-05-16T06:11:22;7.83;;;2.00;;
38901;SDS011;24661;53.566;9.910;2023-05-16T06:13:49;6.40;;;1.73;;
38901;SDS011;24661;53.566;9.910;2023-05-16T06:16:18;6.23;;;1.50;;
38901;SDS011;24661;53.566;9.910;2023-05-16T06:18:44;7.97;;;1.97;;
38901;SDS011;24661;53.566;9.910;2023-05-16T06:21:09;28.40;;;4.47;;
38901;SDS011;24661;53.566;9.910;2023-05-16T06:23:35;8.87;;;1.97;;
38901;SDS011;24661;53.566;9.910;2023-05-16T06:26:01;15.03;;;1.90;;
38901;SDS011;24661;53.566;9.910;2023-05-16T06:28:27;11.37;;;1.63;;
38901;SDS011;24661;53.566;9.910;2023-05-16T06:30:53;15.70;;;2.40;;
38901;SDS011;24661;53.566;9.910;2023-05-16T06:33:19;9.77;;;3.00;;
38901;SDS011;24661;53.566;9.910;2023-05-16T06:35:44;11.70;;;2.83;;
38901;SDS011;24661;53.566;9.910;2023-05-16T06:38:12;11.23;;;2.00;;
38901;SDS011;24661;53.566;9.910;2023-05-16T06:40:39;10.80;;;2.50;;
38901;SDS011;24661;53.566;9.910;2023-05-16T06:43:05;10.17;;;1.97;;
38901;SDS011;24661;53.566;9.910;2023-05-16T06:45:30;11.53;;;1.90;;
38901;SDS011;24661;53.566;9.910;2023-05-16T06:47:56;9.80;;;1.70;;
38901;SDS011;24661;53.566;9.910;2023-05-16T06:50:22;11.57;;;1.87;;
38901;SDS011;24661;53.566;9.910;2023-05-16T06:52:47;11.23;;;2.30;;
38901;SDS011;24661;53.566;9.910;2023-05-16T06:55:13;3.93;;;1.53;;
38901;SDS011;24661;53.566;9.910;2023-05-16T06:57:39;12.83;;;1.70;;
38901;SDS011;24661;53.566;9.910;2023-05-16T07:00:05;6.20;;;1.73;;
38901;SDS011;24661;53.566;9.910;2023-05-16T07:02:32;7.47;;;1.90;;
38901;SDS011;24661;53.566;9.910;2023-05-16T07:04:57;8.63;;;1.43;;
38901;SDS011;24661;53.566;9.910;2023-05-16T07:07:23;8.03;;;1.43;;
38901;SDS011;24661;53.566;9.910;2023-05-16T07:09:49;11.93;;;1.97;;
38901;SDS011;24661;53.566;9.910;2023-05-16T07:12:14;9.53;;;1.77;;
38901;SDS011;24661;53.566;9.910;2023-05-16T07:14:40;10.00;;;1.43;;
38901;SDS011;24661;53.566;9.910;2023-05-16T07:17:07;13.80;;;1.50;;
38901;SDS011;24661;53.566;9.910;2023-05-16T07:19:33;6.87;;;1.37;;
38901;SDS011;24661;53.566;9.910;2023-05-16T07:21:59;8.80;;;1.67;;
38901;SDS011;24661;53.566;9.910;2023-05-16T07:24:24;8.63;;;2.00;;
38901;SDS011;24661;53.566;9.910;2023-05-16T07:26:50;10.10;;;1.40;;
38901;SDS011;24661;53.566;9.910;2023-05-16T07:29:15;6.23;;;1.27;;
38901;SDS011;24661;53.566;9.910;2023-05-16T07:31:41;11.63;;;1.70;;
38901;SDS011;24661;53.566;9.910;2023-05-16T07:34:07;5.90;;;1.40;;
38901;SDS011;24661;53.566;9.910;2023-05-16T07:36:33;7.57;;;1.83;;
38901;SDS011;24661;53.566;9.910;2023-05-16T07:38:59;6.30;;;1.93;;
38901;SDS011;24661;53.566;9.910;2023-05-16T07:41:24;7.40;;;1.23;;
38901;SDS011;24661;53.566;9.910;2023-05-16T07:43:50;6.20;;;1.30;;
38901;SDS011;24661;53.566;9.910;2023-05-16T07:46:17;6.40;;;1.40;;
38901;SDS011;24661;53.566;9.910;2023-05-16T07:48:43;7.57;;;2.13;;
38901;SDS011;24661;53.566;9.910;2023-05-16T07:51:08;8.23;;;1.97;;
38901;SDS011;24661;53.566;9.910;2023-05-16T07:53:34;6.53;;;1.40;;
38901;SDS011;24661;53.566;9.910;2023-05-16T07:55:59;9.53;;;2.23;;
38901;SDS011;24661;53.566;9.910;2023-05-16T07:58:25;7.63;;;1.10;;
38901;SDS011;24661;53.566;9.910;2023-05-16T08:00:51;5.87;;;1.17;;
38901;SDS011;24661;53.566;9.910;2023-05-16T08:03:16;6.17;;;1.37;;
38901;SDS011;24661;53.566;9.910;2023-05-16T08:05:42;9.10;;;1.80;;
38901;SDS011;24661;53.566;9.910;2023-05-16T08:08:08;12.70;;;2.40;;
38901;SDS011;24661;53.566;9.910;2023-05-16T08:10:34;10.00;;;1.17;;
38901;SDS011;24661;53.566;9.910;2023-05-16T08:13:00;3.77;;;1.33;;
38901;SDS011;24661;53.566;9.910;2023-05-16T08:15:26;5.77;;;1.37;;
38901;SDS011;24661;53.566;9.910;2023-05-16T08:17:55;8.97;;;1.50;;
38901;SDS011;24661;53.566;9.910;2023-05-16T08:20:23;9.47;;;1.47;;
38901;SDS011;24661;53.566;9.910;2023-05-16T08:22:50;5.17;;;1.40;;
38901;SDS011;24661;53.566;9.910;2023-05-16T08:25:16;9.27;;;2.83;;
38901;SDS011;24661;53.566;9.910;2023-05-16T08:27:41;9.57;;;1.83;;
38901;SDS011;24661;53.566;9.910;2023-05-16T08:30:09;8.77;;;1.87;;
38901;SDS011;24661;53.566;9.910;2023-05-16T08:32:36;10.17;;;2.30;;
38901;SDS011;24661;53.566;9.910;2023-05-16T08:35:02;9.43;;;2.37;;
38901;SDS011;24661;53.566;9.910;2023-05-16T08:37:27;4.90;;;1.50;;
38901;SDS011;24661;53.566;9.910;2023-05-16T08:39:53;8.37;;;2.40;;
38901;SDS011;24661;53.566;9.910;2023-05-16T08:42:19;5.43;;;1.50;;
38901;SDS011;24661;53.566;9.910;2023-05-16T08:44:44;12.77;;;1.70;;
38901;SDS011;24661;53.566;9.910;2023-05-16T08:47:12;8.07;;;1.30;;
38901;SDS011;24661;53.566;9.910;2023-05-16T08:49:48;8.50;;;1.00;;
38901;SDS011;24661;53.566;9.910;2023-05-16T08:52:17;9.10;;;1.20;;
38901;SDS011;24661;53.566;9.910;2023-05-16T08:54:45;7.70;;;1.50;;
38901;SDS011;24661;53.566;9.910;2023-05-16T08:57:12;3.93;;;1.17;;
38901;SDS011;24661;53.566;9.910;2023-05-16T08:59:39;5.13;;;1.67;;
38901;SDS011;24661;53.566;9.910;2023-05-16T09:02:05;7.17;;;1.70;;
38901;SDS011;24661;53.566;9.910;2023-05-16T09:04:33;8.93;;;2.50;;
38901;SDS011;24661;53.566;9.910;2023-05-16T09:06:59;5.97;;;1.23;;
38901;SDS011;24661;53.566;9.910;2023-05-16T09:09:25;6.73;;;1.07;;
38901;SDS011;24661;53.566;9.910;2023-05-16T09:11:51;7.30;;;1.60;;
38901;SDS011;24661;53.566;9.910;2023-05-16T09:14:17;8.57;;;1.17;;
38901;SDS011;24661;53.566;9.910;2023-05-16T09:16:44;7.43;;;1.20;;
38901;SDS011;24661;53.566;9.910;2023-05-16T09:19:26;9.10;;;1.60;;
38901;SDS011;24661;53.566;9.910;2023-05-16T09:22:01;6.37;;;1.33;;
38901;SDS011;24661;53.566;9.910;2023-05-16T09:24:27;10.77;;;1.57;;
38901;SDS011;24661;53.566;9.910;2023-05-16T09:26:53;4.87;;;1.20;;
38901;SDS011;24661;53.566;9.910;2023-05-16T09:29:19;11.70;;;2.67;;
38901;SDS011;24661;53.566;9.910;2023-05-16T09:31:47;7.80;;;1.93;;
38901;SDS011;24661;53.566;9.910;2023-05-16T09:34:13;6.67;;;1.20;;
38901;SDS011;24661;53.566;9.910;2023-05-16T09:36:39;6.57;;;2.30;;
38901;SDS011;24661;53.566;9.910;2023-05-16T09:39:05;4.83;;;1.40;;
38901;SDS011;24661;53.566;9.910;2023-05-16T09:41:34;7.77;;;1.93;;
38901;SDS011;24661;53.566;9.910;2023-05-16T09:44:04;9.40;;;2.20;;
38901;SDS011;24661;53.566;9.910;2023-05-16T09:46:33;4.13;;;1.30;;
38901;SDS011;24661;53.566;9.910;2023-05-16T09:48:59;8.43;;;1.10;;
38901;SDS011;24661;53.566;9.910;2023-05-16T09:51:25;5.00;;;1.30;;
38901;SDS011;24661;53.566;9.910;2023-05-16T09:53:51;5.77;;;1.77;;
38901;SDS011;24661;53.566;9.910;2023-05-16T09:56:17;9.80;;;2.40;;
38901;SDS011;24661;53.566;9.910;2023-05-16T09:58:43;5.90;;;1.67;;
38901;SDS011;24661;53.566;9.910;2023-05-16T10:01:10;3.37;;;1.30;;
38901;SDS011;24661;53.566;9.910;2023-05-16T10:03:37;9.97;;;1.70;;
38901;SDS011;24661;53.566;9.910;2023-05-16T10:06:04;9.93;;;1.73;;
38901;SDS011;24661;53.566;9.910;2023-05-16T10:08:32;9.97;;;1.93;;
38901;SDS011;24661;53.566;9.910;2023-05-16T10:11:00;6.77;;;1.80;;
38901;SDS011;24661;53.566;9.910;2023-05-16T10:13:31;7.57;;;1.80;;
38901;SDS011;24661;53.566;9.910;2023-05-16T10:16:01;9.23;;;1.50;;
38901;SDS011;24661;53.566;9.910;2023-05-16T10:18:31;5.37;;;1.40;;
38901;SDS011;24661;53.566;9.910;2023-05-16T10:21:06;7.10;;;2.10;;
38901;SDS011;24661;53.566;9.910;2023-05-16T10:23:34;7.83;;;2.10;;
38901;SDS011;24661;53.566;9.910;2023-05-16T10:26:02;5.60;;;1.57;;
38901;SDS011;24661;53.566;9.910;2023-05-16T10:28:30;6.57;;;1.70;;
38901;SDS011;24661;53.566;9.910;2023-05-16T10:30:56;5.80;;;1.57;;
38901;SDS011;24661;53.566;9.910;2023-05-16T10:33:23;8.43;;;2.83;;
38901;SDS011;24661;53.566;9.910;2023-05-16T10:35:49;13.07;;;1.97;;
38901;SDS011;24661;53.566;9.910;2023-05-16T10:38:15;4.10;;;1.63;;
38901;SDS011;24661;53.566;9.910;2023-05-16T10:40:42;6.07;;;1.30;;
38901;SDS011;24661;53.566;9.910;2023-05-16T10:43:10;4.40;;;1.30;;
38901;SDS011;24661;53.566;9.910;2023-05-16T10:46:02;12.07;;;2.33;;
38901;SDS011;24661;53.566;9.910;2023-05-16T10:48:33;12.43;;;1.73;;
38901;SDS011;24661;53.566;9.910;2023-05-16T10:51:01;3.23;;;1.10;;
38901;SDS011;24661;53.566;9.910;2023-05-16T10:58:24;4.67;;;1.50;;
38901;SDS011;24661;53.566;9.910;2023-05-16T11:01:25;6.30;;;1.87;;
38901;SDS011;24661;53.566;9.910;2023-05-16T11:06:30;6.30;;;1.50;;
38901;SDS011;24661;53.566;9.910;2023-05-16T11:09:05;5.07;;;1.43;;
38901;SDS011;24661;53.566;9.910;2023-05-16T11:14:19;5.33;;;1.80;;
38901;SDS011;24661;53.566;9.910;2023-05-16T11:16:48;4.80;;;1.17;;
38901;SDS011;24661;53.566;9.910;2023-05-16T11:19:30;4.50;;;0.97;;
38901;SDS011;24661;53.566;9.910;2023-05-16T11:27:44;4.60;;;0.93;;
38901;SDS011;24661;53.566;9.910;2023-05-16T11:30:14;11.03;;;1.53;;
38901;SDS011;24661;53.566;9.910;2023-05-16T11:32:46;5.30;;;1.63;;
38901;SDS011;24661;53.566;9.910;2023-05-16T11:35:13;8.40;;;1.00;;
38901;SDS011;24661;53.566;9.910;2023-05-16T11:37:40;4.73;;;0.90;;
38901;SDS011;24661;53.566;9.910;2023-05-16T11:40:07;6.80;;;1.40;;
38901;SDS011;24661;53.566;9.910;2023-05-16T11:42:36;3.17;;;1.00;;
38901;SDS011;24661;53.566;9.910;2023-05-16T11:47:38;5.07;;;1.40;;
38901;SDS011;24661;53.566;9.910;2023-05-16T11:50:05;3.60;;;1.30;;
38901;SDS011;24661;53.566;9.910;2023-05-16T11:52:38;10.27;;;1.33;;
38901;SDS011;24661;53.566;9.910;2023-05-16T11:55:07;2.50;;;0.90;;
38901;SDS011;24661;53.566;9.910;2023-05-16T11:57:35;4.50;;;1.40;;
38901;SDS011;24661;53.566;9.910;2023-05-16T12:00:15;3.37;;;0.80;;
38901;SDS011;24661;53.566;9.910;2023-05-16T12:02:43;7.17;;;1.30;;
38901;SDS011;24661;53.566;9.910;2023-05-16T12:05:11;5.40;;;1.23;;
38901;SDS011;24661;53.566;9.910;2023-05-16T12:07:37;13.13;;;1.90;;
38901;SDS011;24661;53.566;9.910;2023-05-16T12:10:04;8.70;;;1.30;;
38901;SDS011;24661;53.566;9.910;2023-05-16T12:12:34;8.33;;;1.10;;
38901;SDS011;24661;53.566;9.910;2023-05-16T12:15:04;3.83;;;1.27;;
38901;SDS011;24661;53.566;9.910;2023-05-16T12:17:31;11.60;;;1.30;;
38901;SDS011;24661;53.566;9.910;2023-05-16T12:20:01;3.90;;;1.10;;
38901;SDS011;24661;53.566;9.910;2023-05-16T12:22:32;7.90;;;1.40;;
38901;SDS011;24661;53.566;9.910;2023-05-16T12:24:58;2.60;;;0.60;;
38901;SDS011;24661;53.566;9.910;2023-05-16T12:27:24;6.77;;;1.10;;
38901;SDS011;24661;53.566;9.910;2023-05-16T12:29:51;4.47;;;1.07;;
38901;SDS011;24661;53.566;9.910;2023-05-16T12:32:17;5.00;;;1.00;;
38901;SDS011;24661;53.566;9.910;2023-05-16T12:34:50;2.77;;;1.07;;
38901;SDS011;24661;53.566;9.910;2023-05-16T12:37:17;10.30;;;1.17;;
38901;SDS011;24661;53.566;9.910;2023-05-16T12:39:44;3.70;;;1.30;;
38901;SDS011;24661;53.566;9.910;2023-05-16T12:42:11;4.33;;;1.20;;
38901;SDS011;24661;53.566;9.910;2023-05-16T12:44:38;4.47;;;1.40;;
38901;SDS011;24661;53.566;9.910;2023-05-16T12:47:03;3.73;;;1.37;;
38901;SDS011;24661;53.566;9.910;2023-05-16T12:49:36;4.77;;;1.40;;
38901;SDS011;24661;53.566;9.910;2023-05-16T12:52:08;4.63;;;1.70;;
38901;SDS011;24661;53.566;9.910;2023-05-16T12:54:42;13.33;;;1.60;;
38901;SDS011;24661;53.566;9.910;2023-05-16T12:57:09;6.67;;;1.30;;
38901;SDS011;24661;53.566;9.910;2023-05-16T12:59:34;6.37;;;1.53;;
38901;SDS011;24661;53.566;9.910;2023-05-16T13:02:02;7.83;;;1.27;;
38901;SDS011;24661;53.566;9.910;2023-05-16T13:04:28;3.83;;;1.13;;
38901;SDS011;24661;53.566;9.910;2023-05-16T13:06:54;5.83;;;1.53;;
38901;SDS011;24661;53.566;9.910;2023-05-16T13:09:21;3.20;;;1.10;;
38901;SDS011;24661;53.566;9.910;2023-05-16T13:11:48;4.17;;;1.07;;
38901;SDS011;24661;53.566;9.910;2023-05-16T13:14:17;11.80;;;2.27;;
38901;SDS011;24661;53.566;9.910;2023-05-16T13:16:43;6.23;;;1.27;;
38901;SDS011;24661;53.566;9.910;2023-05-16T13:19:09;4.23;;;1.20;;
38901;SDS011;24661;53.566;9.910;2023-05-16T13:21:34;5.07;;;1.27;;
38901;SDS011;24661;53.566;9.910;2023-05-16T13:24:00;7.40;;;1.30;;
38901;SDS011;24661;53.566;9.910;2023-05-16T13:26:26;9.47;;;1.50;;
38901;SDS011;24661;53.566;9.910;2023-05-16T13:28:52;8.40;;;1.50;;
38901;SDS011;24661;53.566;9.910;2023-05-16T13:31:20;9.87;;;1.70;;
38901;SDS011;24661;53.566;9.910;2023-05-16T13:33:47;5.80;;;1.37;;
38901;SDS011;24661;53.566;9.910;2023-05-16T13:36:13;10.80;;;1.57;;
38901;SDS011;24661;53.566;9.910;2023-05-16T13:38:39;2.90;;;1.50;;
38901;SDS011;24661;53.566;9.910;2023-05-16T13:41:05;8.40;;;1.20;;
38901;SDS011;24661;53.566;9.910;2023-05-16T13:43:31;5.53;;;0.90;;
38901;SDS011;24661;53.566;9.910;2023-05-16T13:45:56;3.80;;;1.07;;
38901;SDS011;24661;53.566;9.910;2023-05-16T13:48:22;5.57;;;0.90;;
38901;SDS011;24661;53.566;9.910;2023-05-16T13:50:48;4.73;;;1.10;;
38901;SDS011;24661;53.566;9.910;2023-05-16T13:53:14;4.53;;;0.97;;
38901;SDS011;24661;53.566;9.910;2023-05-16T13:55:43;3.00;;;0.70;;
38901;SDS011;24661;53.566;9.910;2023-05-16T13:58:12;3.00;;;1.17;;
38901;SDS011;24661;53.566;9.910;2023-05-16T14:00:37;2.73;;;0.83;;
38901;SDS011;24661;53.566;9.910;2023-05-16T14:03:03;1.07;;;0.70;;
38901;SDS011;24661;53.566;9.910;2023-05-16T14:05:28;0.83;;;0.50;;
38901;SDS011;24661;53.566;9.910;2023-05-16T14:07:54;4.30;;;0.60;;
38901;SDS011;24661;53.566;9.910;2023-05-16T14:10:20;3.07;;;0.93;;
38901;SDS011;24661;53.566;9.910;2023-05-16T14:12:45;1.57;;;0.90;;
38901;SDS011;24661;53.566;9.910;2023-05-16T14:15:11;6.03;;;0.93;;
38901;SDS011;24661;53.566;9.910;2023-05-16T14:17:37;2.43;;;0.87;;
38901;SDS011;24661;53.566;9.910;2023-05-16T14:20:02;6.67;;;1.20;;
38901;SDS011;24661;53.566;9.910;2023-05-16T14:22:33;2.10;;;0.60;;
38901;SDS011;24661;53.566;9.910;2023-05-16T14:24:59;3.20;;;0.90;;
38901;SDS011;24661;53.566;9.910;2023-05-16T14:27:24;5.03;;;0.90;;
38901;SDS011;24661;53.566;9.910;2023-05-16T14:29:50;5.73;;;1.50;;
38901;SDS011;24661;53.566;9.910;2023-05-16T14:32:16;3.13;;;1.10;;
38901;SDS011;24661;53.566;9.910;2023-05-16T14:34:42;2.33;;;1.00;;
38901;SDS011;24661;53.566;9.910;2023-05-16T14:37:07;4.17;;;1.00;;
38901;SDS011;24661;53.566;9.910;2023-05-16T14:39:34;5.83;;;1.20;;
38901;SDS011;24661;53.566;9.910;2023-05-16T14:42:00;7.77;;;1.70;;
38901;SDS011;24661;53.566;9.910;2023-05-16T14:44:25;5.83;;;1.57;;
38901;SDS011;24661;53.566;9.910;2023-05-16T14:46:51;7.10;;;1.10;;
38901;SDS011;24661;53.566;9.910;2023-05-16T14:49:17;3.83;;;1.27;;
38901;SDS011;24661;53.566;9.910;2023-05-16T14:51:43;4.80;;;1.17;;
38901;SDS011;24661;53.566;9.910;2023-05-16T14:54:13;3.40;;;0.70;;
38901;SDS011;24661;53.566;9.910;2023-05-16T14:56:38;9.23;;;1.10;;
38901;SDS011;24661;53.566;9.910;2023-05-16T14:59:04;4.03;;;1.03;;
38901;SDS011;24661;53.566;9.910;2023-05-16T15:01:30;5.60;;;1.00;;
38901;SDS011;24661;53.566;9.910;2023-05-16T15:03:57;5.27;;;1.67;;
38901;SDS011;24661;53.566;9.910;2023-05-16T15:06:23;4.53;;;1.20;;
38901;SDS011;24661;53.566;9.910;2023-05-16T15:08:49;5.97;;;1.53;;
38901;SDS011;24661;53.566;9.910;2023-05-16T15:11:15;6.27;;;1.43;;
38901;SDS011;24661;53.566;9.910;2023-05-16T15:13:40;5.13;;;1.50;;